No data was retrieved for https://query.yahooapis.com/v1/public/yql?q=select+%2A+from+weather.forecast+where+woeid%3D860853&format=xml&u=c



Visit our other weather sites:

Template documentation
and downloads

And another site



Nearby METAR Reports

   
EBAW - Antwerp
Updated: 15-05-2021 02:50
Clear  
Clear  
   Wind: NE 1.5 m/s
Wind: NE 1.5 m/s
Temperature: 9°C
Wind Chill: 8°C
Dew Point: 7°C
Humidity: 87%
Barometer: 1007 hPa
Clouds: Clear
Visibility: 6 km
Cloud details: Clear
EBAW 150050Z AUTO 05003KT 6000 // NCD 09/07 Q1007
EBLG - Liège
Updated: 15-05-2021 02:50
Few Clouds  
Few Clouds  
   Wind: South 3.1 m/s
Wind: South 3.1 m/s
Temperature: 9°C
Wind Chill: 7°C
Dew Point: 7°C
Humidity: 87%
Barometer: 1007 hPa
Clouds: Few Clouds
Visibility: More than 10 km
Cloud details: Few Clouds 3600 ft
EBLG 150050Z 19006KT 9999 FEW036 09/07 Q1007 NOSIG
EBCV - Mons/Bergen
Updated: 15-05-2021 02:55
Mist, Partly Cloudy  
Mist, Partly Cloudy  
   Wind: WSW 1.5 m/s
Wind: WSW 1.5 m/s
Temperature: 9°C
Wind Chill: 8°C
Dew Point: 8°C
Humidity: 94%
Barometer: 1007 hPa
Clouds: Partly Cloudy
Visibility: 3 km
Cloud details: Few Clouds 700 ft,
Partly Cloudy 1100 ft
EBCV 150055Z AUTO 25003KT 3200 BR FEW007/// SCT011/// 09/08 Q1007 YLO
EHBK - Maastricht
Updated: 15-05-2021 02:55
Partly Cloudy  
Partly Cloudy  
   Wind: SSW 3.6 m/s
Wind: SSW 3.6 m/s
Temperature: 9°C
Wind Chill: 7°C
Dew Point: 7°C
Humidity: 87%
Barometer: 1007 hPa
Clouds: Partly Cloudy
Visibility: More than 10 km
Cloud details: Partly Cloudy
EHBK 150055Z AUTO 20007KT 9999 NSC 09/07 Q1007
ELLX - Luxemburg
Updated: 15-05-2021 02:50
Mostly Cloudy  
Mostly Cloudy  
   Wind: SW 4.6 m/s
Wind: SW 4.6 m/s
Temperature: 8°C
Wind Chill: 5°C
Dew Point: 7°C
Humidity: 93%
Barometer: 1008 hPa
Clouds: Mostly Cloudy
Visibility: More than 10 km
Cloud details: Few Clouds 500 ft,
Partly Cloudy 800 ft,
Mostly Cloudy 900 ft
ELLX 150050Z AUTO 22009KT 9999 FEW005/// SCT008/// BKN009/// 08/07 Q1008 NOSIG
EBOS - Oostende
Updated: 15-05-2021 02:50
Mostly Cloudy  
Mostly Cloudy  
   Wind: SW 1.5 m/s
Wind: SW 1.5 m/s
Temperature: 6°C
Wind Chill: 5°C
Dew Point: 5°C
Humidity: 93%
Barometer: 1007 hPa
Clouds: Mostly Cloudy
Visibility: 8 km
Cloud details: Mostly Cloudy 1700 ft
EBOS 150050Z 23003KT 8000 BKN017 06/05 Q1007 TEMPO BKN008

Script developed by  Saratoga-weather.org Adapted for the template by  Weerstation Leuven

You find our weather info also at:

Weather Underground

Equipment we use:

Weather-station
Davis Vantage Vue

Weather-program
WeatherCat

Provider
one.com

Davis Vantage Vue

WeatherCat

one.com